sensor_id;sensor_type;location;lat;lon;timestamp;temperature;humidity
11812;DHT22;5963;50.184;9.162;2023-07-09T00:02:23;22.40;99.90
11812;DHT22;5963;50.184;9.162;2023-07-09T00:04:53;22.30;99.90
11812;DHT22;5963;50.184;9.162;2023-07-09T00:07:26;22.20;99.90
11812;DHT22;5963;50.184;9.162;2023-07-09T00:09:58;22.30;99.90
11812;DHT22;5963;50.184;9.162;2023-07-09T00:12:30;22.30;99.90
11812;DHT22;5963;50.184;9.162;2023-07-09T00:15:00;22.20;99.90
11812;DHT22;5963;50.184;9.162;2023-07-09T00:17:32;22.20;99.90
11812;DHT22;5963;50.184;9.162;2023-07-09T00:20:03;22.20;99.90
11812;DHT22;5963;50.184;9.162;2023-07-09T00:22:34;22.30;99.90
11812;DHT22;5963;50.184;9.162;2023-07-09T00:25:04;22.20;99.90
11812;DHT22;5963;50.184;9.162;2023-07-09T00:27:35;22.10;99.90
11812;DHT22;5963;50.184;9.162;2023-07-09T00:30:07;22.10;99.90
11812;DHT22;5963;50.184;9.162;2023-07-09T00:32:37;22.00;99.90
11812;DHT22;5963;50.184;9.162;2023-07-09T00:35:12;22.00;99.90
11812;DHT22;5963;50.184;9.162;2023-07-09T00:37:48;21.90;99.90
11812;DHT22;5963;50.184;9.162;2023-07-09T00:40:20;21.80;99.90
11812;DHT22;5963;50.184;9.162;2023-07-09T00:42:54;21.80;99.90
11812;DHT22;5963;50.184;9.162;2023-07-09T00:45:26;21.80;99.90
11812;DHT22;5963;50.184;9.162;2023-07-09T00:47:58;21.80;99.90
11812;DHT22;5963;50.184;9.162;2023-07-09T00:50:34;21.70;99.90
11812;DHT22;5963;50.184;9.162;2023-07-09T00:53:08;21.70;99.90
11812;DHT22;5963;50.184;9.162;2023-07-09T00:55:44;21.60;99.90
11812;DHT22;5963;50.184;9.162;2023-07-09T00:58:20;21.50;99.90
11812;DHT22;5963;50.184;9.162;2023-07-09T01:00:56;21.50;99.90
11812;DHT22;5963;50.184;9.162;2023-07-09T01:03:34;21.40;99.90
11812;DHT22;5963;50.184;9.162;2023-07-09T01:06:03;21.40;99.90
11812;DHT22;5963;50.184;9.162;2023-07-09T01:08:35;21.30;99.90
11812;DHT22;5963;50.184;9.162;2023-07-09T01:11:13;21.40;99.90
11812;DHT22;5963;50.184;9.162;2023-07-09T01:13:52;21.40;99.90
11812;DHT22;5963;50.184;9.162;2023-07-09T01:16:27;21.40;99.90
11812;DHT22;5963;50.184;9.162;2023-07-09T01:19:01;21.30;99.90
11812;DHT22;5963;50.184;9.162;2023-07-09T01:21:34;21.10;99.90
11812;DHT22;5963;50.184;9.162;2023-07-09T01:24:14;21.00;99.90
11812;DHT22;5963;50.184;9.162;2023-07-09T01:26:44;20.90;99.90
11812;DHT22;5963;50.184;9.162;2023-07-09T01:29:15;20.90;99.90
11812;DHT22;5963;50.184;9.162;2023-07-09T01:31:45;20.70;99.90
11812;DHT22;5963;50.184;9.162;2023-07-09T01:34:19;20.60;99.90
11812;DHT22;5963;50.184;9.162;2023-07-09T01:36:51;20.60;99.90
11812;DHT22;5963;50.184;9.162;2023-07-09T01:39:21;20.70;99.90
11812;DHT22;5963;50.184;9.162;2023-07-09T01:41:51;20.70;99.90
11812;DHT22;5963;50.184;9.162;2023-07-09T01:44:21;20.70;99.90
11812;DHT22;5963;50.184;9.162;2023-07-09T01:46:51;20.40;99.90
11812;DHT22;5963;50.184;9.162;2023-07-09T01:49:21;20.30;99.90
11812;DHT22;5963;50.184;9.162;2023-07-09T01:51:52;20.30;99.90
11812;DHT22;5963;50.184;9.162;2023-07-09T01:54:23;20.20;99.90
11812;DHT22;5963;50.184;9.162;2023-07-09T01:56:53;20.30;99.90
11812;DHT22;5963;50.184;9.162;2023-07-09T01:59:32;20.40;99.90
11812;DHT22;5963;50.184;9.162;2023-07-09T02:02:11;20.50;99.90
11812;DHT22;5963;50.184;9.162;2023-07-09T02:04:50;20.40;99.90
11812;DHT22;5963;50.184;9.162;2023-07-09T02:07:24;20.40;99.90
11812;DHT22;5963;50.184;9.162;2023-07-09T02:09:55;20.50;99.90
11812;DHT22;5963;50.184;9.162;2023-07-09T02:12:25;20.50;99.90
11812;DHT22;5963;50.184;9.162;2023-07-09T02:14:56;20.50;99.90
11812;DHT22;5963;50.184;9.162;2023-07-09T02:17:26;20.10;99.90
11812;DHT22;5963;50.184;9.162;2023-07-09T02:19:56;19.80;99.90
11812;DHT22;5963;50.184;9.162;2023-07-09T02:22:27;19.70;99.90
11812;DHT22;5963;50.184;9.162;2023-07-09T02:24:57;19.80;99.90
11812;DHT22;5963;50.184;9.162;2023-07-09T02:27:27;19.90;99.90
11812;DHT22;5963;50.184;9.162;2023-07-09T02:29:57;19.80;99.90
11812;DHT22;5963;50.184;9.162;2023-07-09T02:32:28;19.70;99.90
11812;DHT22;5963;50.184;9.162;2023-07-09T02:34:56;19.60;99.90
11812;DHT22;5963;50.184;9.162;2023-07-09T02:37:28;19.70;99.90
11812;DHT22;5963;50.184;9.162;2023-07-09T02:40:02;19.60;99.90
11812;DHT22;5963;50.184;9.162;2023-07-09T02:42:35;19.70;99.90
11812;DHT22;5963;50.184;9.162;2023-07-09T02:45:06;19.70;99.90
11812;DHT22;5963;50.184;9.162;2023-07-09T02:47:35;19.70;99.90
11812;DHT22;5963;50.184;9.162;2023-07-09T02:50:07;19.70;99.90
11812;DHT22;5963;50.184;9.162;2023-07-09T02:52:39;19.70;99.90
11812;DHT22;5963;50.184;9.162;2023-07-09T02:55:13;19.60;99.90
11812;DHT22;5963;50.184;9.162;2023-07-09T02:57:45;19.50;99.90
11812;DHT22;5963;50.184;9.162;2023-07-09T03:00:18;19.50;99.90
11812;DHT22;5963;50.184;9.162;2023-07-09T03:02:50;19.50;99.90
11812;DHT22;5963;50.184;9.162;2023-07-09T03:05:20;19.40;99.90
11812;DHT22;5963;50.184;9.162;2023-07-09T03:07:54;19.40;99.90
11812;DHT22;5963;50.184;9.162;2023-07-09T03:10:31;19.40;99.90
11812;DHT22;5963;50.184;9.162;2023-07-09T03:13:06;19.50;99.90
11812;DHT22;5963;50.184;9.162;2023-07-09T03:15:37;19.50;99.90
11812;DHT22;5963;50.184;9.162;2023-07-09T03:18:15;19.40;99.90
11812;DHT22;5963;50.184;9.162;2023-07-09T03:20:45;19.30;99.90
11812;DHT22;5963;50.184;9.162;2023-07-09T03:23:18;19.40;99.90
11812;DHT22;5963;50.184;9.162;2023-07-09T03:25:48;19.50;99.90
11812;DHT22;5963;50.184;9.162;2023-07-09T03:28:18;19.60;99.90
11812;DHT22;5963;50.184;9.162;2023-07-09T03:30:49;19.70;99.90
11812;DHT22;5963;50.184;9.162;2023-07-09T03:33:27;19.70;99.90
11812;DHT22;5963;50.184;9.162;2023-07-09T03:35:59;19.70;99.90
11812;DHT22;5963;50.184;9.162;2023-07-09T03:38:34;19.60;99.90
11812;DHT22;5963;50.184;9.162;2023-07-09T03:41:09;19.50;99.90
11812;DHT22;5963;50.184;9.162;2023-07-09T03:43:41;19.50;99.90
11812;DHT22;5963;50.184;9.162;2023-07-09T03:46:14;19.40;99.90
11812;DHT22;5963;50.184;9.162;2023-07-09T03:48:45;19.20;99.90
11812;DHT22;5963;50.184;9.162;2023-07-09T03:51:22;19.30;99.90
11812;DHT22;5963;50.184;9.162;2023-07-09T03:53:54;19.40;99.90
11812;DHT22;5963;50.184;9.162;2023-07-09T03:56:25;19.40;99.90
11812;DHT22;5963;50.184;9.162;2023-07-09T03:58:55;19.40;99.90
11812;DHT22;5963;50.184;9.162;2023-07-09T04:01:28;19.40;99.90
11812;DHT22;5963;50.184;9.162;2023-07-09T04:03:57;19.40;99.90
11812;DHT22;5963;50.184;9.162;2023-07-09T04:06:27;19.30;99.90
11812;DHT22;5963;50.184;9.162;2023-07-09T04:09:00;19.30;99.90
11812;DHT22;5963;50.184;9.162;2023-07-09T04:11:30;19.20;99.90
11812;DHT22;5963;50.184;9.162;2023-07-09T04:14:02;19.30;99.90
11812;DHT22;5963;50.184;9.162;2023-07-09T04:16:34;19.40;99.90
11812;DHT22;5963;50.184;9.162;2023-07-09T04:19:06;19.30;99.90
11812;DHT22;5963;50.184;9.162;2023-07-09T04:21:36;19.50;99.90
11812;DHT22;5963;50.184;9.162;2023-07-09T04:24:09;19.60;99.90
11812;DHT22;5963;50.184;9.162;2023-07-09T04:26:39;19.50;99.90
11812;DHT22;5963;50.184;9.162;2023-07-09T04:29:12;19.50;99.90
11812;DHT22;5963;50.184;9.162;2023-07-09T04:31:51;19.50;99.90
11812;DHT22;5963;50.184;9.162;2023-07-09T04:34:24;19.40;99.90
11812;DHT22;5963;50.184;9.162;2023-07-09T04:36:56;19.30;99.90
11812;DHT22;5963;50.184;9.162;2023-07-09T04:39:27;19.40;99.90
11812;DHT22;5963;50.184;9.162;2023-07-09T04:41:57;19.50;99.90
11812;DHT22;5963;50.184;9.162;2023-07-09T04:44:27;19.50;99.90
11812;DHT22;5963;50.184;9.162;2023-07-09T04:47:00;19.60;99.90
11812;DHT22;5963;50.184;9.162;2023-07-09T04:49:30;20.30;99.90
11812;DHT22;5963;50.184;9.162;2023-07-09T04:51:59;21.00;99.90
11812;DHT22;5963;50.184;9.162;2023-07-09T04:54:31;21.60;99.90
11812;DHT22;5963;50.184;9.162;2023-07-09T04:57:03;22.20;99.90
11812;DHT22;5963;50.184;9.162;2023-07-09T04:59:35;22.50;99.90
11812;DHT22;5963;50.184;9.162;2023-07-09T05:02:05;23.10;99.90
11812;DHT22;5963;50.184;9.162;2023-07-09T05:04:35;23.20;99.90
11812;DHT22;5963;50.184;9.162;2023-07-09T05:07:07;23.40;99.90
11812;DHT22;5963;50.184;9.162;2023-07-09T05:09:39;23.50;99.90
11812;DHT22;5963;50.184;9.162;2023-07-09T05:12:15;24.10;99.90
11812;DHT22;5963;50.184;9.162;2023-07-09T05:14:45;24.70;99.90
11812;DHT22;5963;50.184;9.162;2023-07-09T05:17:15;25.20;99.90
11812;DHT22;5963;50.184;9.162;2023-07-09T05:19:50;25.60;99.90
11812;DHT22;5963;50.184;9.162;2023-07-09T05:22:20;25.50;99.90
11812;DHT22;5963;50.184;9.162;2023-07-09T05:24:53;25.80;99.90
11812;DHT22;5963;50.184;9.162;2023-07-09T05:27:23;25.80;99.90
11812;DHT22;5963;50.184;9.162;2023-07-09T05:29:53;25.40;99.90
11812;DHT22;5963;50.184;9.162;2023-07-09T05:32:25;25.50;99.90
11812;DHT22;5963;50.184;9.162;2023-07-09T05:34:57;25.60;99.90
11812;DHT22;5963;50.184;9.162;2023-07-09T05:37:30;25.70;99.90
11812;DHT22;5963;50.184;9.162;2023-07-09T05:40:07;25.80;99.90
11812;DHT22;5963;50.184;9.162;2023-07-09T05:42:47;25.70;99.90
11812;DHT22;5963;50.184;9.162;2023-07-09T05:45:23;25.60;99.90
11812;DHT22;5963;50.184;9.162;2023-07-09T05:47:53;26.20;99.90
11812;DHT22;5963;50.184;9.162;2023-07-09T05:50:23;26.50;99.90
11812;DHT22;5963;50.184;9.162;2023-07-09T05:52:57;26.40;99.90
11812;DHT22;5963;50.184;9.162;2023-07-09T05:55:30;26.40;99.90
11812;DHT22;5963;50.184;9.162;2023-07-09T05:58:02;26.70;99.90
11812;DHT22;5963;50.184;9.162;2023-07-09T06:01:09;27.50;99.90
11812;DHT22;5963;50.184;9.162;2023-07-09T06:03:56;27.10;99.90
11812;DHT22;5963;50.184;9.162;2023-07-09T06:06:40;27.10;99.90
11812;DHT22;5963;50.184;9.162;2023-07-09T06:09:14;26.60;99.90
11812;DHT22;5963;50.184;9.162;2023-07-09T06:11:48;26.80;99.90
11812;DHT22;5963;50.184;9.162;2023-07-09T06:14:25;27.50;99.90
11812;DHT22;5963;50.184;9.162;2023-07-09T06:17:03;27.20;99.90
11812;DHT22;5963;50.184;9.162;2023-07-09T06:19:50;27.30;99.90
11812;DHT22;5963;50.184;9.162;2023-07-09T06:22:29;26.90;99.90
11812;DHT22;5963;50.184;9.162;2023-07-09T06:25:05;26.20;99.90
11812;DHT22;5963;50.184;9.162;2023-07-09T06:27:44;26.80;99.90
11812;DHT22;5963;50.184;9.162;2023-07-09T06:30:20;28.00;99.90
11812;DHT22;5963;50.184;9.162;2023-07-09T06:32:50;27.90;99.90
11812;DHT22;5963;50.184;9.162;2023-07-09T06:35:20;27.60;99.90
11812;DHT22;5963;50.184;9.162;2023-07-09T06:37:53;27.50;99.90
11812;DHT22;5963;50.184;9.162;2023-07-09T06:40:26;27.50;99.90
11812;DHT22;5963;50.184;9.162;2023-07-09T06:42:59;28.20;99.90
11812;DHT22;5963;50.184;9.162;2023-07-09T06:45:31;28.70;99.90
11812;DHT22;5963;50.184;9.162;2023-07-09T06:48:06;28.20;99.90
11812;DHT22;5963;50.184;9.162;2023-07-09T06:50:48;28.30;99.90
11812;DHT22;5963;50.184;9.162;2023-07-09T06:53:21;28.00;99.90
11812;DHT22;5963;50.184;9.162;2023-07-09T06:55:53;27.50;99.90
11812;DHT22;5963;50.184;9.162;2023-07-09T06:58:32;27.70;99.90
11812;DHT22;5963;50.184;9.162;2023-07-09T07:01:06;28.00;99.90
11812;DHT22;5963;50.184;9.162;2023-07-09T07:03:39;28.10;99.90
11812;DHT22;5963;50.184;9.162;2023-07-09T07:06:12;28.20;99.90
11812;DHT22;5963;50.184;9.162;2023-07-09T07:08:43;27.80;99.90
11812;DHT22;5963;50.184;9.162;2023-07-09T07:11:17;27.70;99.90
11812;DHT22;5963;50.184;9.162;2023-07-09T07:13:48;27.80;99.90
11812;DHT22;5963;50.184;9.162;2023-07-09T07:16:23;27.60;99.90
11812;DHT22;5963;50.184;9.162;2023-07-09T07:18:53;27.30;99.90
11812;DHT22;5963;50.184;9.162;2023-07-09T07:21:26;27.50;99.90
11812;DHT22;5963;50.184;9.162;2023-07-09T07:23:57;27.90;99.90
11812;DHT22;5963;50.184;9.162;2023-07-09T07:26:27;28.00;99.90
11812;DHT22;5963;50.184;9.162;2023-07-09T07:29:00;28.30;99.90
11812;DHT22;5963;50.184;9.162;2023-07-09T07:31:30;28.40;99.90
11812;DHT22;5963;50.184;9.162;2023-07-09T07:34:02;28.50;99.90
11812;DHT22;5963;50.184;9.162;2023-07-09T07:36:33;28.70;99.90
11812;DHT22;5963;50.184;9.162;2023-07-09T07:39:09;28.90;99.90
11812;DHT22;5963;50.184;9.162;2023-07-09T07:41:39;29.10;99.90
11812;DHT22;5963;50.184;9.162;2023-07-09T07:44:10;28.80;99.90
11812;DHT22;5963;50.184;9.162;2023-07-09T07:46:40;29.20;99.90
11812;DHT22;5963;50.184;9.162;2023-07-09T07:49:10;29.50;99.90
11812;DHT22;5963;50.184;9.162;2023-07-09T07:51:40;29.50;99.90
11812;DHT22;5963;50.184;9.162;2023-07-09T07:54:11;29.80;99.90
11812;DHT22;5963;50.184;9.162;2023-07-09T07:56:43;30.00;99.30
11812;DHT22;5963;50.184;9.162;2023-07-09T07:59:15;30.20;98.60
11812;DHT22;5963;50.184;9.162;2023-07-09T08:01:48;30.20;98.10
11812;DHT22;5963;50.184;9.162;2023-07-09T08:04:18;30.20;98.30
11812;DHT22;5963;50.184;9.162;2023-07-09T08:06:50;30.50;98.20
11812;DHT22;5963;50.184;9.162;2023-07-09T08:09:23;30.80;97.50
11812;DHT22;5963;50.184;9.162;2023-07-09T08:12:02;30.80;96.90
11812;DHT22;5963;50.184;9.162;2023-07-09T08:14:47;31.10;97.00
11812;DHT22;5963;50.184;9.162;2023-07-09T08:17:21;31.20;97.50
11812;DHT22;5963;50.184;9.162;2023-07-09T08:19:52;31.30;97.20
11812;DHT22;5963;50.184;9.162;2023-07-09T08:22:23;31.40;97.00
11812;DHT22;5963;50.184;9.162;2023-07-09T08:24:53;31.50;97.20
11812;DHT22;5963;50.184;9.162;2023-07-09T08:27:23;31.60;96.30
11812;DHT22;5963;50.184;9.162;2023-07-09T08:29:54;31.70;95.70
11812;DHT22;5963;50.184;9.162;2023-07-09T08:32:24;31.70;95.50
11812;DHT22;5963;50.184;9.162;2023-07-09T08:34:57;32.00;96.50
11812;DHT22;5963;50.184;9.162;2023-07-09T08:37:29;32.00;96.20
11812;DHT22;5963;50.184;9.162;2023-07-09T08:40:00;32.30;95.60
11812;DHT22;5963;50.184;9.162;2023-07-09T08:42:43;32.60;95.30
11812;DHT22;5963;50.184;9.162;2023-07-09T08:45:36;32.70;95.20
11812;DHT22;5963;50.184;9.162;2023-07-09T08:48:15;32.90;94.70
11812;DHT22;5963;50.184;9.162;2023-07-09T08:51:12;32.90;92.50
11812;DHT22;5963;50.184;9.162;2023-07-09T08:53:59;33.00;91.80
11812;DHT22;5963;50.184;9.162;2023-07-09T08:56:33;33.20;91.20
11812;DHT22;5963;50.184;9.162;2023-07-09T08:59:21;33.00;90.70
11812;DHT22;5963;50.184;9.162;2023-07-09T09:01:57;33.00;90.20
11812;DHT22;5963;50.184;9.162;2023-07-09T09:04:31;33.00;90.30
11812;DHT22;5963;50.184;9.162;2023-07-09T09:07:12;33.20;90.20
11812;DHT22;5963;50.184;9.162;2023-07-09T09:10:05;33.20;90.30
11812;DHT22;5963;50.184;9.162;2023-07-09T09:12:41;33.50;90.40
11812;DHT22;5963;50.184;9.162;2023-07-09T09:15:20;33.80;89.60
11812;DHT22;5963;50.184;9.162;2023-07-09T09:18:17;33.80;90.00
11812;DHT22;5963;50.184;9.162;2023-07-09T09:21:01;33.10;90.40
11812;DHT22;5963;50.184;9.162;2023-07-09T09:23:40;33.60;89.40
11812;DHT22;5963;50.184;9.162;2023-07-09T09:26:21;33.90;88.80
11812;DHT22;5963;50.184;9.162;2023-07-09T09:28:56;33.80;89.30
11812;DHT22;5963;50.184;9.162;2023-07-09T09:31:37;34.30;87.90
11812;DHT22;5963;50.184;9.162;2023-07-09T09:34:23;34.20;88.90
11812;DHT22;5963;50.184;9.162;2023-07-09T09:37:09;34.10;86.20
11812;DHT22;5963;50.184;9.162;2023-07-09T09:39:45;34.00;87.80
11812;DHT22;5963;50.184;9.162;2023-07-09T09:42:39;34.50;86.90
11812;DHT22;5963;50.184;9.162;2023-07-09T09:45:31;34.60;85.70
11812;DHT22;5963;50.184;9.162;2023-07-09T09:48:16;35.00;85.00
11812;DHT22;5963;50.184;9.162;2023-07-09T09:51:05;35.00;84.70
11812;DHT22;5963;50.184;9.162;2023-07-09T09:53:40;35.30;84.70
11812;DHT22;5963;50.184;9.162;2023-07-09T09:56:36;35.10;84.20
11812;DHT22;5963;50.184;9.162;2023-07-09T09:59:19;34.60;84.10
11812;DHT22;5963;50.184;9.162;2023-07-09T10:02:18;34.60;85.20
11812;DHT22;5963;50.184;9.162;2023-07-09T10:04:52;34.60;83.40
11812;DHT22;5963;50.184;9.162;2023-07-09T10:07:42;34.80;85.00
11812;DHT22;5963;50.184;9.162;2023-07-09T10:10:35;34.90;84.30
11812;DHT22;5963;50.184;9.162;2023-07-09T10:13:10;35.10;84.50
11812;DHT22;5963;50.184;9.162;2023-07-09T10:16:07;35.60;83.20
11812;DHT22;5963;50.184;9.162;2023-07-09T10:18:47;35.90;81.50
11812;DHT22;5963;50.184;9.162;2023-07-09T10:21:33;36.10;81.30
11812;DHT22;5963;50.184;9.162;2023-07-09T10:24:22;34.90;81.50
11812;DHT22;5963;50.184;9.162;2023-07-09T10:27:03;35.40;82.20
11812;DHT22;5963;50.184;9.162;2023-07-09T10:29:51;36.00;80.40
11812;DHT22;5963;50.184;9.162;2023-07-09T10:32:44;36.30;79.90
11812;DHT22;5963;50.184;9.162;2023-07-09T10:35:22;36.90;78.70
11812;DHT22;5963;50.184;9.162;2023-07-09T10:38:14;36.90;77.10
11812;DHT22;5963;50.184;9.162;2023-07-09T10:41:13;36.90;78.20
11812;DHT22;5963;50.184;9.162;2023-07-09T10:44:01;35.90;77.60
11812;DHT22;5963;50.184;9.162;2023-07-09T10:46:44;36.20;78.50
11812;DHT22;5963;50.184;9.162;2023-07-09T10:49:31;36.40;76.60
11812;DHT22;5963;50.184;9.162;2023-07-09T10:52:11;36.50;76.80
11812;DHT22;5963;50.184;9.162;2023-07-09T10:54:55;36.70;76.30
11812;DHT22;5963;50.184;9.162;2023-07-09T10:57:44;36.50;76.80
11812;DHT22;5963;50.184;9.162;2023-07-09T11:00:18;36.70;75.90
11812;DHT22;5963;50.184;9.162;2023-07-09T11:03:07;36.80;75.20
11812;DHT22;5963;50.184;9.162;2023-07-09T11:05:48;36.90;74.10
11812;DHT22;5963;50.184;9.162;2023-07-09T11:08:38;36.80;73.60
11812;DHT22;5963;50.184;9.162;2023-07-09T11:11:23;36.90;75.00
11812;DHT22;5963;50.184;9.162;2023-07-09T11:14:04;36.00;72.20
11812;DHT22;5963;50.184;9.162;2023-07-09T11:16:41;35.40;75.70
11812;DHT22;5963;50.184;9.162;2023-07-09T11:19:22;35.60;73.80
11812;DHT22;5963;50.184;9.162;2023-07-09T11:22:03;36.30;72.80
11812;DHT22;5963;50.184;9.162;2023-07-09T11:24:44;36.60;72.30
11812;DHT22;5963;50.184;9.162;2023-07-09T11:27:22;35.70;72.50
11812;DHT22;5963;50.184;9.162;2023-07-09T11:30:18;36.30;72.20
11812;DHT22;5963;50.184;9.162;2023-07-09T11:33:02;35.90;73.20
11812;DHT22;5963;50.184;9.162;2023-07-09T11:36:07;36.20;71.00
11812;DHT22;5963;50.184;9.162;2023-07-09T11:38:41;36.40;71.80
11812;DHT22;5963;50.184;9.162;2023-07-09T11:41:36;36.70;72.40
11812;DHT22;5963;50.184;9.162;2023-07-09T11:44:22;36.80;73.30
11812;DHT22;5963;50.184;9.162;2023-07-09T11:47:17;37.40;72.80
11812;DHT22;5963;50.184;9.162;2023-07-09T11:49:57;37.30;71.00
11812;DHT22;5963;50.184;9.162;2023-07-09T11:52:35;36.50;69.70
11812;DHT22;5963;50.184;9.162;2023-07-09T11:55:21;36.90;72.00
11812;DHT22;5963;50.184;9.162;2023-07-09T11:57:55;37.70;70.70
11812;DHT22;5963;50.184;9.162;2023-07-09T12:00:30;37.70;69.40
11812;DHT22;5963;50.184;9.162;2023-07-09T12:03:23;36.30;69.80
11812;DHT22;5963;50.184;9.162;2023-07-09T12:06:20;36.40;69.10
11812;DHT22;5963;50.184;9.162;2023-07-09T12:08:55;36.20;70.00
11812;DHT22;5963;50.184;9.162;2023-07-09T12:11:43;36.80;69.10
11812;DHT22;5963;50.184;9.162;2023-07-09T12:14:14;37.10;69.40
11812;DHT22;5963;50.184;9.162;2023-07-09T12:16:50;36.50;69.00
11812;DHT22;5963;50.184;9.162;2023-07-09T12:19:23;36.30;68.70
11812;DHT22;5963;50.184;9.162;2023-07-09T12:21:58;36.90;68.20
11812;DHT22;5963;50.184;9.162;2023-07-09T12:24:46;37.30;69.20
11812;DHT22;5963;50.184;9.162;2023-07-09T12:27:23;36.50;68.40
11812;DHT22;5963;50.184;9.162;2023-07-09T12:30:09;36.80;67.90
11812;DHT22;5963;50.184;9.162;2023-07-09T12:32:48;37.40;67.80
11812;DHT22;5963;50.184;9.162;2023-07-09T12:35:31;37.70;66.50
11812;DHT22;5963;50.184;9.162;2023-07-09T12:38:19;37.90;65.80
11812;DHT22;5963;50.184;9.162;2023-07-09T12:40:52;38.00;65.10
11812;DHT22;5963;50.184;9.162;2023-07-09T12:43:33;38.40;64.30
11812;DHT22;5963;50.184;9.162;2023-07-09T12:46:11;38.20;63.90
11812;DHT22;5963;50.184;9.162;2023-07-09T12:48:44;38.40;63.00
11812;DHT22;5963;50.184;9.162;2023-07-09T12:51:23;38.50;64.00
11812;DHT22;5963;50.184;9.162;2023-07-09T12:54:11;38.50;64.00
11812;DHT22;5963;50.184;9.162;2023-07-09T12:56:49;37.70;65.60
11812;DHT22;5963;50.184;9.162;2023-07-09T12:59:22;37.30;65.40
11812;DHT22;5963;50.184;9.162;2023-07-09T13:02:00;37.60;65.10
11812;DHT22;5963;50.184;9.162;2023-07-09T13:04:37;37.60;65.80
11812;DHT22;5963;50.184;9.162;2023-07-09T13:07:27;37.90;65.00
11812;DHT22;5963;50.184;9.162;2023-07-09T13:10:03;38.00;65.40
11812;DHT22;5963;50.184;9.162;2023-07-09T13:12:34;37.80;64.90
11812;DHT22;5963;50.184;9.162;2023-07-09T13:15:24;37.50;63.90
11812;DHT22;5963;50.184;9.162;2023-07-09T13:18:03;37.70;64.50
11812;DHT22;5963;50.184;9.162;2023-07-09T13:20:44;37.30;65.70
11812;DHT22;5963;50.184;9.162;2023-07-09T13:23:25;37.00;63.50
11812;DHT22;5963;50.184;9.162;2023-07-09T13:25:59;37.20;63.70
11812;DHT22;5963;50.184;9.162;2023-07-09T13:28:35;37.10;65.10
11812;DHT22;5963;50.184;9.162;2023-07-09T13:31:13;37.70;64.50
11812;DHT22;5963;50.184;9.162;2023-07-09T13:33:52;37.10;65.30
11812;DHT22;5963;50.184;9.162;2023-07-09T13:36:25;37.70;64.90
11812;DHT22;5963;50.184;9.162;2023-07-09T13:38:59;37.20;62.70
11812;DHT22;5963;50.184;9.162;2023-07-09T13:41:29;36.90;64.10
11812;DHT22;5963;50.184;9.162;2023-07-09T13:44:00;37.00;62.20
11812;DHT22;5963;50.184;9.162;2023-07-09T13:46:31;36.70;62.50
11812;DHT22;5963;50.184;9.162;2023-07-09T13:49:04;36.60;61.70
11812;DHT22;5963;50.184;9.162;2023-07-09T13:51:41;36.50;61.50
11812;DHT22;5963;50.184;9.162;2023-07-09T13:54:19;36.60;63.20
11812;DHT22;5963;50.184;9.162;2023-07-09T13:57:09;36.50;62.30
11812;DHT22;5963;50.184;9.162;2023-07-09T13:59:43;37.00;61.30
11812;DHT22;5963;50.184;9.162;2023-07-09T14:02:28;37.30;60.80
11812;DHT22;5963;50.184;9.162;2023-07-09T14:05:08;37.50;61.30
11812;DHT22;5963;50.184;9.162;2023-07-09T14:07:40;37.10;62.20
11812;DHT22;5963;50.184;9.162;2023-07-09T14:10:14;37.60;62.90
11812;DHT22;5963;50.184;9.162;2023-07-09T14:13:03;37.50;61.80
11812;DHT22;5963;50.184;9.162;2023-07-09T14:15:36;37.60;61.90
11812;DHT22;5963;50.184;9.162;2023-07-09T14:18:15;37.80;61.70
11812;DHT22;5963;50.184;9.162;2023-07-09T14:20:51;37.70;61.00
11812;DHT22;5963;50.184;9.162;2023-07-09T14:23:36;37.60;62.50
11812;DHT22;5963;50.184;9.162;2023-07-09T14:26:13;37.90;61.20
11812;DHT22;5963;50.184;9.162;2023-07-09T14:28:49;37.70;59.80
11812;DHT22;5963;50.184;9.162;2023-07-09T14:31:26;37.70;61.10
11812;DHT22;5963;50.184;9.162;2023-07-09T14:34:22;37.40;59.60
11812;DHT22;5963;50.184;9.162;2023-07-09T14:36:58;37.10;59.90
11812;DHT22;5963;50.184;9.162;2023-07-09T14:39:31;36.90;61.20
11812;DHT22;5963;50.184;9.162;2023-07-09T14:42:13;36.70;61.80
11812;DHT22;5963;50.184;9.162;2023-07-09T14:44:47;36.80;62.10
11812;DHT22;5963;50.184;9.162;2023-07-09T14:47:32;37.20;62.80
11812;DHT22;5963;50.184;9.162;2023-07-09T14:50:03;37.30;61.40
11812;DHT22;5963;50.184;9.162;2023-07-09T14:52:37;36.90;59.20
11812;DHT22;5963;50.184;9.162;2023-07-09T14:55:12;37.20;59.80
11812;DHT22;5963;50.184;9.162;2023-07-09T14:57:49;37.50;59.10
11812;DHT22;5963;50.184;9.162;2023-07-09T15:03:22;37.20;59.90
11812;DHT22;5963;50.184;9.162;2023-07-09T15:06:06;37.70;60.00
11812;DHT22;5963;50.184;9.162;2023-07-09T15:08:39;37.90;59.20
11812;DHT22;5963;50.184;9.162;2023-07-09T15:11:11;38.00;59.70
11812;DHT22;5963;50.184;9.162;2023-07-09T15:13:47;37.40;62.20
11812;DHT22;5963;50.184;9.162;2023-07-09T15:16:19;36.80;63.60
11812;DHT22;5963;50.184;9.162;2023-07-09T15:18:52;36.60;62.60
11812;DHT22;5963;50.184;9.162;2023-07-09T15:21:26;36.50;64.10
11812;DHT22;5963;50.184;9.162;2023-07-09T15:23:58;36.50;63.60
11812;DHT22;5963;50.184;9.162;2023-07-09T15:26:41;36.60;63.50
11812;DHT22;5963;50.184;9.162;2023-07-09T15:29:19;36.40;63.70
11812;DHT22;5963;50.184;9.162;2023-07-09T15:31:55;36.40;64.50
11812;DHT22;5963;50.184;9.162;2023-07-09T15:34:37;36.40;63.00
11812;DHT22;5963;50.184;9.162;2023-07-09T15:37:25;36.50;63.00
11812;DHT22;5963;50.184;9.162;2023-07-09T15:39:58;36.70;63.00
11812;DHT22;5963;50.184;9.162;2023-07-09T15:42:30;36.50;65.80
11812;DHT22;5963;50.184;9.162;2023-07-09T15:45:14;36.50;69.00
11812;DHT22;5963;50.184;9.162;2023-07-09T15:47:50;36.00;66.80
11812;DHT22;5963;50.184;9.162;2023-07-09T15:50:39;35.90;68.80
11812;DHT22;5963;50.184;9.162;2023-07-09T15:53:25;36.00;65.00
11812;DHT22;5963;50.184;9.162;2023-07-09T15:56:00;35.90;71.10
11812;DHT22;5963;50.184;9.162;2023-07-09T15:58:40;35.90;69.80
11812;DHT22;5963;50.184;9.162;2023-07-09T16:01:16;35.90;68.50
11812;DHT22;5963;50.184;9.162;2023-07-09T16:04:00;35.80;68.50
11812;DHT22;5963;50.184;9.162;2023-07-09T16:06:48;35.90;68.10
11812;DHT22;5963;50.184;9.162;2023-07-09T16:09:32;35.50;71.10
11812;DHT22;5963;50.184;9.162;2023-07-09T16:12:07;35.20;67.60
11812;DHT22;5963;50.184;9.162;2023-07-09T16:14:44;35.10;68.90
11812;DHT22;5963;50.184;9.162;2023-07-09T16:17:19;35.20;71.20
11812;DHT22;5963;50.184;9.162;2023-07-09T16:20:07;35.00;68.80
11812;DHT22;5963;50.184;9.162;2023-07-09T16:22:48;35.10;70.00
11812;DHT22;5963;50.184;9.162;2023-07-09T16:25:29;35.10;68.70
11812;DHT22;5963;50.184;9.162;2023-07-09T16:28:05;35.10;70.40
11812;DHT22;5963;50.184;9.162;2023-07-09T16:30:38;35.00;74.50
11812;DHT22;5963;50.184;9.162;2023-07-09T16:33:15;34.90;72.60
11812;DHT22;5963;50.184;9.162;2023-07-09T16:35:54;35.00;73.50
11812;DHT22;5963;50.184;9.162;2023-07-09T16:38:38;35.00;73.40
11812;DHT22;5963;50.184;9.162;2023-07-09T16:41:18;34.80;73.40
11812;DHT22;5963;50.184;9.162;2023-07-09T16:44:01;34.70;73.90
11812;DHT22;5963;50.184;9.162;2023-07-09T16:46:35;34.50;75.40
11812;DHT22;5963;50.184;9.162;2023-07-09T16:49:41;34.20;75.70